Time;durP1;ratioP1;P1;durP2;ratioP2;P2;SDS_P1;SDS_P2;PMS_P1;PMS_P2;Temp;Humidity;BMP_temperature;BMP_pressure;BME280_temperature;BME280_humidity;BME280_pressure;Samples;Min_cycle;Max_cycle;Signal;HPM_P1;HPM_P2
2023/05/15 00:01:10;;;;;;;;;;;;;;;16.82;75.39;98450.06;135896;1275;24208;-65
2023/05/15 00:04:22;;;;;;;;;;;;;;;16.75;76.04;98446.27;135931;1275;22556;-65
2023/05/15 00:07:24;;;;;;;;;;;;;;;16.89;75.51;98440.06;135946;1275;22515;-64
2023/05/15 00:10:28;;;;;;;;;;;;;;;16.83;76.64;98436.20;135859;1275;22499;-64
2023/05/15 00:13:32;;;;;;;;;;;;;;;16.68;77.32;98424.67;132188;1275;5368301;-66
2023/05/15 00:16:35;;;;;;;;;;;;;;;16.56;78.96;98408.14;136016;1275;22503;-63
2023/05/15 00:19:57;;;;;;;;;;;;;;;16.51;79.04;98393.39;135958;1259;22494;-67
2023/05/15 00:23:00;;;;;;;;;;;;;;;16.37;80.15;98388.41;135965;1275;22531;-68
2023/05/15 00:26:04;;;;;;;;;;;;;;;16.39;79.84;98383.73;135917;1275;22510;-66
2023/05/15 00:29:07;;;;;;;;;;;;;;;16.35;80.84;98375.48;135964;1275;22502;-67
2023/05/15 00:32:10;;;;;;;;;;;;;;;16.18;81.66;98365.75;135828;1275;23814;-64
2023/05/15 00:35:14;;;;;;;;;;;;;;;16.06;83.37;98363.70;135751;1275;22511;-65
2023/05/15 00:38:17;;;;;;;;;;;;;;;16.07;83.52;98359.13;135984;1275;22512;-68
2023/05/15 00:41:21;;;;;;;;;;;;;;;16.12;83.66;98349.34;135964;1275;25233;-64
2023/05/15 00:44:24;;;;;;;;;;;;;;;16.26;82.15;98350.38;135953;1275;22497;-65
2023/05/15 00:47:27;;;;;;;;;;;;;;;16.35;81.89;98345.98;135845;1275;22493;-69
2023/05/15 00:50:31;;;;;;;;;;;;;;;16.33;80.77;98347.10;135881;1268;23251;-70
2023/05/15 00:53:34;;;;;;;;;;;;;;;16.32;81.78;98346.81;135945;1275;22495;-66
2023/05/15 00:56:37;;;;;;;;;;;;;;;16.36;81.34;98346.27;135932;1260;22504;-66
2023/05/15 00:59:41;;;;;;;;;;;;;;;16.40;80.91;98345.38;135939;1275;22497;-72
2023/05/15 01:02:44;;;;;;;;;;;;;;;16.39;81.03;98345.44;135982;1268;22502;-68
2023/05/15 01:05:47;;;;;;;;;;;;;;;16.49;80.71;98341.95;135965;1275;22506;-67
2023/05/15 01:08:51;;;;;;;;;;;;;;;16.62;80.26;98329.05;135891;1275;26463;-66
2023/05/15 01:11:54;;;;;;;;;;;;;;;16.71;79.58;98327.52;135954;1275;22518;-67
2023/05/15 01:14:57;;;;;;;;;;;;;;;16.72;79.05;98329.92;136005;1266;22497;-69
2023/05/15 01:18:02;;;;;;;;;;;;;;;16.52;81.27;98326.46;135970;1275;22501;-67
2023/05/15 01:21:06;;;;;;;;;;;;;;;16.64;79.62;98324.61;135961;1275;22518;-65
2023/05/15 01:24:08;;;;;;;;;;;;;;;16.61;80.67;98324.88;135987;1275;22529;-67
2023/05/15 01:27:12;;;;;;;;;;;;;;;16.72;79.74;98318.57;135970;1257;25589;-66
2023/05/15 01:30:15;;;;;;;;;;;;;;;16.78;79.18;98310.81;135944;1275;22516;-66
2023/05/15 01:33:18;;;;;;;;;;;;;;;16.76;79.19;98305.48;135972;1275;22504;-67
2023/05/15 01:36:22;;;;;;;;;;;;;;;16.70;79.43;98299.04;135921;1275;25313;-64
2023/05/15 01:39:25;;;;;;;;;;;;;;;16.64;80.31;98292.89;135899;1275;22501;-64
2023/05/15 01:42:28;;;;;;;;;;;;;;;16.55;80.57;98290.51;135975;1275;22613;-68
2023/05/15 01:45:32;;;;;;;;;;;;;;;16.52;80.95;98291.00;135981;1275;22496;-66
2023/05/15 01:48:35;;;;;;;;;;;;;;;16.50;80.32;98286.96;135989;1275;22504;-66
2023/05/15 01:51:39;;;;;;;;;;;;;;;16.52;80.33;98289.44;135951;1275;22510;-66
2023/05/15 01:54:42;;;;;;;;;;;;;;;16.48;80.32;98284.33;135988;1275;24065;-64
2023/05/15 01:57:45;;;;;;;;;;;;;;;16.31;81.88;98279.50;135975;1275;22501;-66
2023/05/15 02:00:49;;;;;;;;;;;;;;;16.32;82.18;98283.45;135873;1275;22688;-67
2023/05/15 02:03:52;;;;;;;;;;;;;;;16.29;82.78;98280.43;135906;1275;22501;-64
2023/05/15 02:07:12;;;;;;;;;;;;;;;16.26;83.46;98275.58;135971;1275;22503;-66
2023/05/15 02:10:15;;;;;;;;;;;;;;;16.28;83.41;98275.02;135943;1260;22498;-64
2023/05/15 02:13:19;;;;;;;;;;;;;;;16.24;84.05;98264.34;135973;1275;22518;-64
2023/05/15 02:16:22;;;;;;;;;;;;;;;16.23;84.88;98260.85;135956;1275;22718;-65
2023/05/15 02:19:26;;;;;;;;;;;;;;;16.26;84.21;98263.23;136009;1275;25228;-69
2023/05/15 02:22:29;;;;;;;;;;;;;;;16.32;84.14;98265.31;135915;1275;22635;-67
2023/05/15 02:25:33;;;;;;;;;;;;;;;16.42;83.92;98261.08;135797;1275;22529;-67
2023/05/15 02:28:37;;;;;;;;;;;;;;;16.47;83.45;98262.85;135917;1275;22529;-69
2023/05/15 02:31:40;;;;;;;;;;;;;;;16.49;83.64;98258.04;135958;1275;22527;-67
2023/05/15 02:34:46;;;;;;;;;;;;;;;16.62;82.95;98262.84;135935;1275;25331;-63
2023/05/15 02:37:49;;;;;;;;;;;;;;;16.52;83.63;98259.02;135978;1275;22502;-64
2023/05/15 02:40:52;;;;;;;;;;;;;;;16.46;84.32;98253.73;135922;1267;24222;-65
2023/05/15 02:43:56;;;;;;;;;;;;;;;16.47;84.51;98243.84;135957;1275;25376;-65
2023/05/15 02:46:59;;;;;;;;;;;;;;;16.45;84.31;98238.90;135961;1260;22519;-66
2023/05/15 02:50:02;;;;;;;;;;;;;;;16.50;84.04;98234.30;135869;1268;22507;-67
2023/05/15 02:53:06;;;;;;;;;;;;;;;16.41;84.33;98236.98;135972;1264;22599;-65
2023/05/15 02:56:09;;;;;;;;;;;;;;;16.37;84.24;98235.23;135959;1275;22509;-66
2023/05/15 02:59:17;;;;;;;;;;;;;;;16.31;85.18;98232.13;135964;1275;22525;-67
2023/05/15 03:02:20;;;;;;;;;;;;;;;16.26;85.69;98227.25;135691;1277;22512;-64
2023/05/15 03:05:23;;;;;;;;;;;;;;;16.27;85.35;98223.41;135711;1277;22501;-63
2023/05/15 03:08:26;;;;;;;;;;;;;;;16.39;85.54;98221.45;135779;1277;22522;-66
2023/05/15 03:11:32;;;;;;;;;;;;;;;16.29;85.12;98222.02;135754;1277;22514;-69
2023/05/15 03:14:35;;;;;;;;;;;;;;;16.19;87.60;98210.77;135731;1277;22504;-67
2023/05/15 03:17:58;;;;;;;;;;;;;;;16.19;86.51;98206.00;135764;1277;22504;-67
2023/05/15 03:21:04;;;;;;;;;;;;;;;16.26;86.35;98201.14;135694;1277;22513;-68
2023/05/15 03:24:08;;;;;;;;;;;;;;;16.32;86.87;98198.52;135695;1277;22502;-70
2023/05/15 03:27:12;;;;;;;;;;;;;;;16.27;87.85;98196.61;135775;1277;22509;-71
2023/05/15 03:30:15;;;;;;;;;;;;;;;16.27;88.25;98197.87;135777;1277;22501;-68
2023/05/15 03:33:19;;;;;;;;;;;;;;;16.25;87.95;98193.43;135708;1277;22508;-67
2023/05/15 03:36:22;;;;;;;;;;;;;;;16.31;88.32;98190.45;135729;1277;25254;-69
2023/05/15 03:39:26;;;;;;;;;;;;;;;16.39;87.02;98185.65;135690;1277;22505;-67
2023/05/15 03:42:33;;;;;;;;;;;;;;;16.53;86.61;98178.48;135674;1277;23914;-68
2023/05/15 03:45:37;;;;;;;;;;;;;;;16.51;86.70;98184.81;135745;1277;22526;-68
2023/05/15 03:48:40;;;;;;;;;;;;;;;16.53;86.82;98184.50;135754;1277;22540;-70
2023/05/15 03:51:44;;;;;;;;;;;;;;;16.50;87.22;98184.46;135761;1277;22616;-68
2023/05/15 03:54:48;;;;;;;;;;;;;;;16.52;86.92;98181.05;135798;1277;22507;-68
2023/05/15 03:57:52;;;;;;;;;;;;;;;16.53;86.96;98176.23;135800;1277;22562;-69
2023/05/15 04:00:57;;;;;;;;;;;;;;;16.56;86.77;98175.86;135862;1275;22522;-67
2023/05/15 04:04:01;;;;;;;;;;;;;;;16.57;86.51;98178.26;135925;1275;24204;-70
2023/05/15 04:07:05;;;;;;;;;;;;;;;16.61;86.50;98173.14;135988;1275;22481;-64
2023/05/15 04:10:09;;;;;;;;;;;;;;;16.63;85.63;98171.64;135965;1275;22819;-69
2023/05/15 04:13:13;;;;;;;;;;;;;;;16.65;85.22;98173.38;135969;1275;22607;-70
2023/05/15 04:16:16;;;;;;;;;;;;;;;16.63;85.63;98173.63;135955;1275;25241;-67
2023/05/15 04:19:20;;;;;;;;;;;;;;;16.59;85.40;98177.39;135986;1275;25410;-68
2023/05/15 04:22:27;;;;;;;;;;;;;;;16.52;86.39;98171.20;135977;1275;22507;-69
2023/05/15 04:25:31;;;;;;;;;;;;;;;16.43;86.81;98168.66;135965;1275;23011;-64
2023/05/15 04:28:35;;;;;;;;;;;;;;;16.39;86.74;98167.42;135973;1275;22529;-66
2023/05/15 04:31:39;;;;;;;;;;;;;;;16.35;87.44;98162.87;135990;1275;22500;-64
2023/05/15 04:34:43;;;;;;;;;;;;;;;16.33;87.15;98161.83;136010;1275;23856;-70
2023/05/15 04:37:47;;;;;;;;;;;;;;;16.32;87.08;98158.54;135819;1275;22527;-67
2023/05/15 04:40:52;;;;;;;;;;;;;;;16.33;88.14;98153.42;136032;1275;23847;-65
2023/05/15 04:43:55;;;;;;;;;;;;;;;16.39;87.31;98145.55;136031;1275;22516;-68
2023/05/15 04:47:01;;;;;;;;;;;;;;;16.47;87.40;98139.17;136010;1275;22518;-69
2023/05/15 04:50:05;;;;;;;;;;;;;;;16.58;86.81;98139.89;135980;1275;22502;-69
2023/05/15 04:53:08;;;;;;;;;;;;;;;16.57;87.01;98131.66;136000;1275;22508;-69
2023/05/15 04:56:12;;;;;;;;;;;;;;;16.65;87.42;98130.73;135983;1275;22507;-69
2023/05/15 04:59:14;;;;;;;;;;;;;;;16.83;87.05;98128.45;136008;1275;22526;-69
2023/05/15 05:02:18;;;;;;;;;;;;;;;17.00;86.56;98123.26;135961;1275;22501;-69
2023/05/15 05:05:22;;;;;;;;;;;;;;;17.16;85.43;98115.76;135929;1275;22506;-69
2023/05/15 05:08:25;;;;;;;;;;;;;;;17.20;85.14;98113.90;135892;1275;22514;-66
2023/05/15 05:11:28;;;;;;;;;;;;;;;17.28;83.66;98107.46;135983;1275;22528;-64
2023/05/15 05:14:32;;;;;;;;;;;;;;;17.27;83.66;98104.48;136016;1275;22501;-69
2023/05/15 05:17:38;;;;;;;;;;;;;;;17.15;84.22;98104.32;136031;1275;22631;-67
2023/05/15 05:20:42;;;;;;;;;;;;;;;17.09;84.23;98103.14;135957;1275;22520;-65
2023/05/15 05:23:46;;;;;;;;;;;;;;;17.07;84.47;98097.23;136002;1257;22628;-67
2023/05/15 05:26:52;;;;;;;;;;;;;;;17.04;84.88;98082.98;135937;1275;22553;-63
2023/05/15 05:29:54;;;;;;;;;;;;;;;17.04;85.51;98083.95;136002;1275;22501;-65
2023/05/15 05:32:58;;;;;;;;;;;;;;;17.07;85.81;98076.88;135991;1275;22517;-62
2023/05/15 05:36:01;;;;;;;;;;;;;;;17.10;85.57;98075.80;136031;1275;22509;-65
2023/05/15 05:39:05;;;;;;;;;;;;;;;17.17;85.52;98081.90;135870;1275;22560;-67
2023/05/15 05:42:08;;;;;;;;;;;;;;;17.26;85.53;98082.75;136065;1257;23767;-69
2023/05/15 05:45:10;;;;;;;;;;;;;;;17.24;86.25;98078.84;136008;1257;23402;-64
2023/05/15 05:48:13;;;;;;;;;;;;;;;17.28;85.89;98071.75;135995;1275;22503;-65
2023/05/15 05:51:20;;;;;;;;;;;;;;;17.32;85.80;98076.33;136027;1275;22501;-66
2023/05/15 05:54:23;;;;;;;;;;;;;;;17.52;85.26;98073.64;136056;1275;22514;-64
2023/05/15 05:57:26;;;;;;;;;;;;;;;17.69;84.75;98070.63;135975;1275;22509;-68
2023/05/15 06:00:31;;;;;;;;;;;;;;;17.89;84.18;98070.88;136016;1275;22515;-67
2023/05/15 06:03:33;;;;;;;;;;;;;;;18.04;84.23;98071.16;136026;1275;22504;-65
2023/05/15 06:06:40;;;;;;;;;;;;;;;18.29;83.37;98067.73;136005;1275;22514;-66
2023/05/15 06:09:45;;;;;;;;;;;;;;;18.40;81.71;98057.87;136027;1275;22511;-67
2023/05/15 06:12:49;;;;;;;;;;;;;;;18.43;81.05;98057.84;136020;1275;22613;-63
2023/05/15 06:15:52;;;;;;;;;;;;;;;18.40;80.90;98064.08;136024;1275;22524;-65
2023/05/15 06:18:55;;;;;;;;;;;;;;;18.33;80.82;98058.55;135998;1275;22508;-65
2023/05/15 06:21:59;;;;;;;;;;;;;;;18.33;80.72;98043.05;135934;1275;22515;-67
2023/05/15 06:25:04;;;;;;;;;;;;;;;18.29;80.34;98045.40;136015;1275;22599;-67
2023/05/15 06:28:08;;;;;;;;;;;;;;;18.25;80.56;98039.78;136005;1275;23124;-67
2023/05/15 06:31:11;;;;;;;;;;;;;;;18.26;80.44;98044.11;135741;1275;22510;-67
2023/05/15 06:34:17;;;;;;;;;;;;;;;18.24;80.84;98041.91;136049;1275;23299;-64
2023/05/15 06:37:21;;;;;;;;;;;;;;;18.30;80.37;98043.31;136001;1275;22513;-67
2023/05/15 06:40:25;;;;;;;;;;;;;;;18.35;80.70;98038.84;136020;1275;22531;-69
2023/05/15 06:43:29;;;;;;;;;;;;;;;18.38;80.29;98034.54;136012;1275;22489;-68
2023/05/15 06:46:33;;;;;;;;;;;;;;;18.26;80.16;98024.29;136034;1275;24228;-69
2023/05/15 06:49:36;;;;;;;;;;;;;;;18.15;80.42;98017.65;136030;1275;22524;-65
2023/05/15 06:52:40;;;;;;;;;;;;;;;18.08;80.63;98011.86;135970;1275;22539;-65
2023/05/15 06:55:46;;;;;;;;;;;;;;;18.02;80.47;98007.46;136013;1275;22552;-65
2023/05/15 06:58:49;;;;;;;;;;;;;;;17.98;80.70;98003.19;136039;1275;22510;-67
2023/05/15 07:01:54;;;;;;;;;;;;;;;18.08;80.92;98003.01;135970;1275;22528;-68
2023/05/15 07:04:58;;;;;;;;;;;;;;;18.26;80.64;98004.84;136028;1275;25344;-65
2023/05/15 07:08:02;;;;;;;;;;;;;;;18.49;79.72;97996.76;136050;1275;22498;-70
2023/05/15 07:11:06;;;;;;;;;;;;;;;18.62;79.97;97997.63;136009;1275;22499;-69
2023/05/15 07:14:10;;;;;;;;;;;;;;;18.78;78.87;97990.27;136009;1275;22506;-69
2023/05/15 07:17:13;;;;;;;;;;;;;;;18.99;78.38;97989.05;135977;1275;22511;-67
2023/05/15 07:20:16;;;;;;;;;;;;;;;19.27;77.63;97983.76;135876;1275;22765;-67
2023/05/15 07:23:20;;;;;;;;;;;;;;;19.51;77.46;97981.90;136071;1275;22518;-71
2023/05/15 07:26:24;;;;;;;;;;;;;;;19.72;76.26;97981.55;136028;1275;22507;-72
2023/05/15 07:29:28;;;;;;;;;;;;;;;19.89;75.49;97977.75;136052;1275;22530;-67
2023/05/15 07:32:32;;;;;;;;;;;;;;;20.08;75.04;97982.52;135955;1275;22517;-64
2023/05/15 07:35:37;;;;;;;;;;;;;;;20.05;74.32;97982.89;136019;1275;22613;-65
2023/05/15 07:38:41;;;;;;;;;;;;;;;20.02;73.60;97985.69;136054;1275;22521;-69
2023/05/15 07:41:45;;;;;;;;;;;;;;;20.09;73.71;97986.01;135997;1275;22533;-66
2023/05/15 07:44:49;;;;;;;;;;;;;;;20.04;74.47;97988.33;136039;1275;22511;-66
2023/05/15 07:47:53;;;;;;;;;;;;;;;20.01;73.78;97988.28;136051;1275;22505;-67
2023/05/15 07:50:56;;;;;;;;;;;;;;;19.92;73.42;97990.21;136075;1275;22516;-67
2023/05/15 07:54:00;;;;;;;;;;;;;;;19.79;73.79;98000.30;136030;1275;22560;-67
2023/05/15 07:57:03;;;;;;;;;;;;;;;19.74;74.12;97999.95;136007;1275;22499;-66
2023/05/15 08:00:11;;;;;;;;;;;;;;;19.71;74.61;97991.92;136025;1275;22578;-66
2023/05/15 08:03:15;;;;;;;;;;;;;;;19.75;74.48;97992.17;136059;1253;22501;-69
2023/05/15 08:06:21;;;;;;;;;;;;;;;19.77;74.70;97991.02;136006;1275;22522;-70
2023/05/15 08:09:25;;;;;;;;;;;;;;;19.78;74.19;97989.42;136055;1275;22509;-66
2023/05/15 08:12:28;;;;;;;;;;;;;;;19.90;74.89;97988.66;136031;1255;22679;-66
2023/05/15 08:15:32;;;;;;;;;;;;;;;20.06;74.10;97988.39;136041;1275;22627;-69
2023/05/15 08:18:34;;;;;;;;;;;;;;;20.26;73.64;97990.80;136045;1255;22505;-69
2023/05/15 08:21:38;;;;;;;;;;;;;;;20.43;72.08;97988.79;135888;1275;22510;-66
2023/05/15 08:24:41;;;;;;;;;;;;;;;20.47;70.84;97991.92;136040;1256;22594;-68
2023/05/15 08:27:45;;;;;;;;;;;;;;;20.45;70.86;97991.61;136063;1275;24273;-68
2023/05/15 08:30:48;;;;;;;;;;;;;;;20.35;70.82;97992.04;136053;1275;22497;-63
2023/05/15 08:33:51;;;;;;;;;;;;;;;20.37;70.65;97992.85;136056;1253;22540;-65
2023/05/15 08:36:55;;;;;;;;;;;;;;;20.16;71.61;97990.98;136066;1275;22508;-65
2023/05/15 08:39:59;;;;;;;;;;;;;;;20.16;70.96;97990.33;136046;1275;22501;-70
2023/05/15 08:43:02;;;;;;;;;;;;;;;20.16;70.90;97991.20;136052;1275;22526;-70
2023/05/15 08:46:05;;;;;;;;;;;;;;;20.03;71.24;97994.29;136030;1275;22530;-66
2023/05/15 08:49:08;;;;;;;;;;;;;;;19.94;71.41;98002.88;136057;1264;22618;-64
2023/05/15 08:52:11;;;;;;;;;;;;;;;19.87;71.72;97999.94;136040;1275;22508;-65
2023/05/15 08:55:14;;;;;;;;;;;;;;;19.88;71.66;98003.54;136035;1275;22500;-67
2023/05/15 08:58:20;;;;;;;;;;;;;;;19.83;71.51;98004.29;136010;1275;25259;-66
2023/05/15 09:01:24;;;;;;;;;;;;;;;19.83;71.89;98005.35;136080;1256;22523;-67
2023/05/15 09:04:29;;;;;;;;;;;;;;;19.92;71.84;98005.70;136089;1275;24226;-64
2023/05/15 09:07:33;;;;;;;;;;;;;;;19.97;71.69;98006.50;136061;1275;22608;-67
2023/05/15 09:10:36;;;;;;;;;;;;;;;19.95;72.22;98009.73;136065;1275;22504;-67
2023/05/15 09:13:39;;;;;;;;;;;;;;;20.05;72.02;98009.15;136099;1275;25379;-65
2023/05/15 09:16:42;;;;;;;;;;;;;;;20.11;72.00;98012.89;136040;1275;22527;-65
2023/05/15 09:19:45;;;;;;;;;;;;;;;20.12;71.70;98013.27;135963;1275;22505;-68
2023/05/15 09:22:48;;;;;;;;;;;;;;;20.18;71.00;98016.00;135965;1275;25455;-65
2023/05/15 09:25:52;;;;;;;;;;;;;;;20.10;70.96;98013.02;135913;1257;22666;-64
2023/05/15 09:28:55;;;;;;;;;;;;;;;20.16;71.47;98008.93;136053;1275;22597;-66
2023/05/15 09:31:59;;;;;;;;;;;;;;;20.32;70.95;98004.70;136040;1275;23975;-64
2023/05/15 09:35:02;;;;;;;;;;;;;;;20.47;70.59;98004.54;136083;1275;23251;-63
2023/05/15 09:38:05;;;;;;;;;;;;;;;20.49;70.71;98010.36;136062;1275;22504;-68
2023/05/15 09:41:08;;;;;;;;;;;;;;;20.51;70.74;98016.73;135889;1260;22500;-65
2023/05/15 09:44:11;;;;;;;;;;;;;;;20.46;69.72;98020.96;136050;1258;22502;-67
2023/05/15 09:47:15;;;;;;;;;;;;;;;20.38;70.18;98031.27;136067;1275;22493;-69
2023/05/15 09:50:18;;;;;;;;;;;;;;;20.41;70.33;98035.21;135995;1275;24653;-67
2023/05/15 09:53:21;;;;;;;;;;;;;;;20.41;69.97;98031.29;136004;1275;22691;-67
2023/05/15 09:56:26;;;;;;;;;;;;;;;20.27;70.03;98029.40;136013;1275;22507;-67
2023/05/15 09:59:29;;;;;;;;;;;;;;;20.18;70.15;98022.89;136029;1275;22493;-64
2023/05/15 10:02:33;;;;;;;;;;;;;;;20.14;71.03;98017.13;136073;1275;22524;-64
2023/05/15 10:05:37;;;;;;;;;;;;;;;20.29;71.28;98018.54;135958;1275;22507;-69
2023/05/15 10:08:40;;;;;;;;;;;;;;;20.52;70.90;98017.64;136123;1275;22511;-66
2023/05/15 10:11:44;;;;;;;;;;;;;;;20.70;70.04;98018.79;136074;1275;22507;-69
2023/05/15 10:14:47;;;;;;;;;;;;;;;20.88;68.97;98021.69;136042;1275;22572;-67
2023/05/15 10:17:51;;;;;;;;;;;;;;;20.86;68.88;98028.25;136084;1275;22547;-67
2023/05/15 10:20:56;;;;;;;;;;;;;;;20.83;69.32;98037.93;136117;1275;22507;-65
2023/05/15 10:23:59;;;;;;;;;;;;;;;20.82;69.79;98048.55;136085;1275;22507;-68
2023/05/15 10:27:02;;;;;;;;;;;;;;;20.77;69.88;98048.72;136041;1275;22525;-67
2023/05/15 10:30:06;;;;;;;;;;;;;;;20.91;69.67;98048.38;136006;1275;22714;-71
2023/05/15 10:33:10;;;;;;;;;;;;;;;20.94;69.83;98043.52;136004;1275;22503;-66
2023/05/15 10:36:13;;;;;;;;;;;;;;;20.83;69.74;98044.75;136037;1275;22493;-69
2023/05/15 10:39:15;;;;;;;;;;;;;;;20.80;70.15;98048.77;136073;1257;24263;-69
2023/05/15 10:42:19;;;;;;;;;;;;;;;20.73;71.29;98060.70;136034;1275;22516;-67
2023/05/15 10:45:23;;;;;;;;;;;;;;;20.72;71.53;98056.98;135922;1275;22526;-67
2023/05/15 10:48:27;;;;;;;;;;;;;;;20.87;71.08;98051.45;136058;1275;22508;-72
2023/05/15 10:51:31;;;;;;;;;;;;;;;20.88;71.69;98043.88;136072;1275;22579;-66
2023/05/15 10:54:35;;;;;;;;;;;;;;;21.09;72.62;98039.66;136044;1275;22527;-72
2023/05/15 10:57:38;;;;;;;;;;;;;;;21.61;72.56;98038.39;136068;1275;22962;-68
2023/05/15 11:00:42;;;;;;;;;;;;;;;22.25;71.07;98035.41;135936;1275;22508;-67
2023/05/15 11:03:45;;;;;;;;;;;;;;;22.74;70.24;98030.36;136070;1275;25393;-66
2023/05/15 11:06:49;;;;;;;;;;;;;;;23.17;68.18;98026.14;136079;1275;25306;-64
2023/05/15 11:09:52;;;;;;;;;;;;;;;23.51;67.14;98023.02;136026;1275;22516;-67
2023/05/15 11:12:56;;;;;;;;;;;;;;;23.81;65.59;98021.98;136017;1275;23158;-65
2023/05/15 11:16:00;;;;;;;;;;;;;;;23.85;64.77;98018.42;136004;1275;22505;-65
2023/05/15 11:19:04;;;;;;;;;;;;;;;23.78;64.44;98020.13;136056;1275;22504;-67
2023/05/15 11:22:07;;;;;;;;;;;;;;;23.79;65.07;98016.30;136046;1275;22551;-65
2023/05/15 11:25:12;;;;;;;;;;;;;;;23.85;64.47;98015.77;136043;1275;22521;-68
2023/05/15 11:28:15;;;;;;;;;;;;;;;23.92;63.77;98013.17;136016;1275;22522;-67
2023/05/15 11:31:19;;;;;;;;;;;;;;;23.74;63.53;98010.88;136061;1275;22521;-67
2023/05/15 11:34:23;;;;;;;;;;;;;;;23.60;64.39;98012.23;135952;1275;25406;-68
2023/05/15 11:37:26;;;;;;;;;;;;;;;23.53;64.04;98005.73;136037;1275;22500;-68
2023/05/15 11:40:30;;;;;;;;;;;;;;;23.64;63.81;98002.91;136042;1275;22508;-65
2023/05/15 11:43:34;;;;;;;;;;;;;;;23.75;62.62;98011.54;136057;1275;22503;-65
2023/05/15 11:46:38;;;;;;;;;;;;;;;23.69;62.15;98008.79;136021;1275;22511;-68
2023/05/15 11:49:42;;;;;;;;;;;;;;;23.36;62.06;98009.45;135893;1275;22503;-69
2023/05/15 11:52:44;;;;;;;;;;;;;;;23.45;62.64;98004.61;135932;1275;22508;-68
2023/05/15 11:55:48;;;;;;;;;;;;;;;23.51;61.98;98001.52;135921;1275;22977;-65
2023/05/15 11:58:51;;;;;;;;;;;;;;;23.65;62.13;97999.08;136050;1275;22508;-65
2023/05/15 12:01:55;;;;;;;;;;;;;;;23.61;61.98;97999.56;136074;1275;22514;-67
2023/05/15 12:04:59;;;;;;;;;;;;;;;23.47;62.19;97997.92;136045;1275;23012;-66
2023/05/15 12:08:03;;;;;;;;;;;;;;;23.50;61.49;97988.63;136038;1275;26071;-68
2023/05/15 12:11:06;;;;;;;;;;;;;;;23.53;61.07;97983.59;136104;1275;22510;-66
2023/05/15 12:14:09;;;;;;;;;;;;;;;23.55;61.35;97976.76;131969;1275;5370283;-65
2023/05/15 12:17:13;;;;;;;;;;;;;;;23.66;61.87;97968.45;135960;1275;22514;-66
2023/05/15 12:20:17;;;;;;;;;;;;;;;23.89;61.20;97961.73;136084;1275;22521;-66
2023/05/15 12:23:23;;;;;;;;;;;;;;;24.10;61.45;97965.81;136023;1275;22513;-66
2023/05/15 12:26:27;;;;;;;;;;;;;;;24.43;60.71;97966.59;136035;1275;22517;-65
2023/05/15 12:29:31;;;;;;;;;;;;;;;24.74;58.89;97966.99;136040;1275;22538;-66
2023/05/15 12:32:34;;;;;;;;;;;;;;;24.69;58.28;97967.14;136027;1275;22552;-65
2023/05/15 12:35:38;;;;;;;;;;;;;;;24.38;58.71;97967.66;136055;1275;22517;-65
2023/05/15 12:38:42;;;;;;;;;;;;;;;24.12;58.32;97971.76;136053;1275;22538;-68
2023/05/15 12:41:46;;;;;;;;;;;;;;;23.97;58.75;97983.05;136006;1257;22508;-66
2023/05/15 12:44:52;;;;;;;;;;;;;;;23.72;59.27;97983.89;136020;1256;24225;-66
2023/05/15 12:47:56;;;;;;;;;;;;;;;23.57;60.01;97964.42;135965;1275;22539;-67
2023/05/15 12:51:00;;;;;;;;;;;;;;;23.52;60.18;97956.48;136033;1275;22509;-68
2023/05/15 12:54:03;;;;;;;;;;;;;;;23.54;60.18;97954.20;136065;1275;23287;-67
2023/05/15 12:57:06;;;;;;;;;;;;;;;23.72;60.36;97965.98;136032;1275;22507;-66
2023/05/15 13:00:09;;;;;;;;;;;;;;;24.10;60.65;97958.31;136047;1275;22521;-64
2023/05/15 13:03:13;;;;;;;;;;;;;;;24.50;59.76;97950.21;136014;1275;22459;-65
2023/05/15 13:06:17;;;;;;;;;;;;;;;24.92;60.00;97949.23;136040;1275;22553;-70
2023/05/15 13:09:20;;;;;;;;;;;;;;;25.45;58.21;97948.39;136037;1275;22501;-65
2023/05/15 13:12:24;;;;;;;;;;;;;;;25.61;55.42;97937.99;136010;1275;22545;-66
2023/05/15 13:15:27;;;;;;;;;;;;;;;25.83;54.43;97932.89;136014;1275;22497;-71
2023/05/15 13:18:31;;;;;;;;;;;;;;;25.94;52.48;97941.83;135878;1275;22491;-65
2023/05/15 13:21:34;;;;;;;;;;;;;;;25.73;50.94;97946.12;135961;1275;22507;-67
2023/05/15 13:24:37;;;;;;;;;;;;;;;25.66;52.13;97947.42;136026;1275;22502;-71
2023/05/15 13:27:40;;;;;;;;;;;;;;;25.51;51.39;97949.91;135917;1275;22517;-66
2023/05/15 13:30:43;;;;;;;;;;;;;;;25.06;50.68;97955.75;135996;1275;22519;-67
2023/05/15 13:33:47;;;;;;;;;;;;;;;24.80;51.31;97959.66;135987;1275;22511;-68
2023/05/15 13:36:50;;;;;;;;;;;;;;;24.49;51.34;97957.83;136026;1275;22510;-65
2023/05/15 13:39:54;;;;;;;;;;;;;;;24.20;51.93;97960.56;136021;1275;22521;-67
2023/05/15 13:42:58;;;;;;;;;;;;;;;23.98;52.53;97956.13;135853;1260;24207;-68
2023/05/15 13:46:00;;;;;;;;;;;;;;;23.77;52.04;97951.70;136023;1275;24183;-69
2023/05/15 13:49:04;;;;;;;;;;;;;;;23.59;52.33;97955.83;135945;1275;22534;-67
2023/05/15 13:52:09;;;;;;;;;;;;;;;23.71;53.06;97954.76;135965;1275;22523;-71
2023/05/15 13:55:12;;;;;;;;;;;;;;;23.67;52.66;97958.98;135996;1275;22500;-65
2023/05/15 13:58:18;;;;;;;;;;;;;;;23.48;52.65;97960.14;136017;1275;22494;-69
2023/05/15 14:01:22;;;;;;;;;;;;;;;23.28;52.90;97960.63;136009;1275;22499;-66
2023/05/15 14:04:25;;;;;;;;;;;;;;;23.25;52.87;97951.16;136010;1275;22555;-66
2023/05/15 14:07:29;;;;;;;;;;;;;;;23.24;53.19;97942.08;135920;1275;22537;-70
2023/05/15 14:10:33;;;;;;;;;;;;;;;23.43;52.98;97943.64;136024;1275;22502;-66
2023/05/15 14:13:37;;;;;;;;;;;;;;;23.57;52.73;97947.87;136038;1275;22501;-67
2023/05/15 14:16:40;;;;;;;;;;;;;;;23.57;53.01;97952.23;135972;1275;22516;-65
2023/05/15 14:19:44;;;;;;;;;;;;;;;23.65;52.95;97953.67;136001;1275;22517;-67
2023/05/15 14:22:49;;;;;;;;;;;;;;;23.82;53.33;97952.64;135991;1275;22495;-65
2023/05/15 14:25:55;;;;;;;;;;;;;;;24.56;53.37;97950.64;135978;1275;22493;-69
2023/05/15 14:28:59;;;;;;;;;;;;;;;25.67;52.54;97935.92;135951;1275;22504;-67
2023/05/15 14:32:03;;;;;;;;;;;;;;;26.52;50.68;97930.70;136000;1275;22502;-65
2023/05/15 14:35:06;;;;;;;;;;;;;;;27.04;49.51;97928.23;135967;1275;22499;-67
2023/05/15 14:38:10;;;;;;;;;;;;;;;26.73;49.19;97942.02;136027;1275;22497;-69
2023/05/15 14:41:14;;;;;;;;;;;;;;;26.36;49.65;97951.73;135993;1275;22514;-67
2023/05/15 14:44:18;;;;;;;;;;;;;;;26.13;50.22;97953.48;135968;1275;24354;-64
2023/05/15 14:47:24;;;;;;;;;;;;;;;25.85;50.75;97954.70;135950;1275;22511;-67
2023/05/15 14:50:28;;;;;;;;;;;;;;;25.56;50.59;97954.15;135996;1275;22500;-71
2023/05/15 14:53:33;;;;;;;;;;;;;;;25.11;50.22;97947.30;135982;1275;22559;-65
2023/05/15 14:56:36;;;;;;;;;;;;;;;24.73;50.95;97942.20;135955;1275;22545;-70
2023/05/15 14:59:40;;;;;;;;;;;;;;;24.52;51.19;97933.70;135967;1275;22588;-67
2023/05/15 15:02:44;;;;;;;;;;;;;;;24.34;51.59;97934.67;135986;1275;22504;-68
2023/05/15 15:05:49;;;;;;;;;;;;;;;24.11;51.76;97945.50;135932;1275;22533;-65
2023/05/15 15:08:52;;;;;;;;;;;;;;;23.82;52.17;97944.07;135976;1275;22498;-65
2023/05/15 15:11:56;;;;;;;;;;;;;;;23.56;52.42;97939.91;135999;1275;25360;-66
2023/05/15 15:14:59;;;;;;;;;;;;;;;23.37;52.66;97937.71;135992;1275;22516;-68
2023/05/15 15:18:02;;;;;;;;;;;;;;;23.21;53.23;97939.73;135967;1275;22506;-67
2023/05/15 15:21:06;;;;;;;;;;;;;;;22.96;54.00;97940.85;135936;1275;22515;-65
2023/05/15 15:24:10;;;;;;;;;;;;;;;22.80;54.97;97931.48;135994;1275;22524;-64
2023/05/15 15:27:13;;;;;;;;;;;;;;;23.33;54.86;97926.59;135879;1275;22495;-68
2023/05/15 15:30:16;;;;;;;;;;;;;;;23.53;54.82;97927.80;135927;1275;22526;-69
2023/05/15 15:33:20;;;;;;;;;;;;;;;23.54;54.79;97922.45;135949;1275;22502;-66
2023/05/15 15:36:24;;;;;;;;;;;;;;;23.69;54.27;97933.27;135985;1275;22539;-65
2023/05/15 15:39:27;;;;;;;;;;;;;;;24.02;53.64;97932.58;136000;1275;25390;-64
2023/05/15 15:42:34;;;;;;;;;;;;;;;24.06;53.23;97931.29;135999;1275;25112;-65